createdAt,value
2023-07-25T00:03:54.886Z,1.95
2023-07-25T00:08:56.510Z,1.70
2023-07-25T00:13:58.121Z,1.70
2023-07-25T00:18:59.740Z,1.75
2023-07-25T00:24:01.415Z,1.80
2023-07-25T00:29:03.048Z,2.05
2023-07-25T00:34:05.564Z,1.98
2023-07-25T00:39:07.342Z,2.08
2023-07-25T00:44:09.342Z,1.70
2023-07-25T00:49:11.838Z,1.70
2023-07-25T00:54:13.680Z,2.10
2023-07-25T00:59:15.260Z,1.80
2023-07-25T01:04:16.957Z,1.88
2023-07-25T01:09:35.613Z,1.85
2023-07-25T01:14:38.258Z,1.88
2023-07-25T01:19:43.455Z,2.00
2023-07-25T01:24:48.621Z,2.05
2023-07-25T01:29:50.359Z,1.98
2023-07-25T01:34:52.024Z,1.60
2023-07-25T01:39:53.728Z,1.50
2023-07-25T01:44:55.754Z,1.50
2023-07-25T01:49:57.549Z,1.48
2023-07-25T01:54:59.245Z,1.65
2023-07-25T02:00:01.359Z,1.80
2023-07-25T02:05:03.421Z,1.60
2023-07-25T02:10:05.647Z,2.20
2023-07-25T02:15:07.920Z,2.40
2023-07-25T02:20:10.032Z,1.67
2023-07-25T02:25:11.809Z,1.65
2023-07-25T02:30:13.528Z,1.80
2023-07-25T02:35:15.937Z,1.92
2023-07-25T02:40:19.301Z,1.70
2023-07-25T02:45:21.047Z,1.50
2023-07-25T02:50:22.783Z,1.80
2023-07-25T02:55:24.613Z,1.88
2023-07-25T03:00:26.409Z,2.00
2023-07-25T03:05:29.330Z,1.77
2023-07-25T03:10:31.156Z,2.65
2023-07-25T03:15:32.908Z,1.88
2023-07-25T03:20:34.874Z,1.80
2023-07-25T03:25:36.725Z,1.95
2023-07-25T03:30:38.432Z,1.90
2023-07-25T03:35:40.329Z,2.22
2023-07-25T03:40:41.989Z,2.13
2023-07-25T03:45:43.837Z,2.10
2023-07-25T03:50:45.716Z,2.05
2023-07-25T03:55:47.504Z,2.00
2023-07-25T04:00:49.306Z,3.00
2023-07-25T04:05:50.983Z,2.60
2023-07-25T04:10:52.685Z,2.40
2023-07-25T04:15:54.471Z,2.80
2023-07-25T04:20:56.292Z,2.20
2023-07-25T04:25:57.998Z,2.10
2023-07-25T04:30:59.835Z,1.92
2023-07-25T04:36:01.602Z,1.75
2023-07-25T04:41:03.377Z,2.13
2023-07-25T04:46:05.174Z,1.98
2023-07-25T04:51:07.049Z,1.92
2023-07-25T04:56:08.842Z,2.47
2023-07-25T05:01:10.799Z,2.20
2023-07-25T05:06:12.746Z,2.00
2023-07-25T05:11:14.473Z,2.30
2023-07-25T05:16:16.442Z,2.15
2023-07-25T05:21:18.244Z,2.95
2023-07-25T05:26:20.038Z,2.10
2023-07-25T05:31:21.792Z,2.88
2023-07-25T05:36:23.628Z,2.90
2023-07-25T05:41:25.379Z,2.00
2023-07-25T05:46:27.054Z,2.10
2023-07-25T05:51:29.026Z,2.58
2023-07-25T05:56:30.951Z,2.17
2023-07-25T06:01:33.129Z,2.22
2023-07-25T06:06:35.052Z,2.25
2023-07-25T06:11:37.393Z,2.30
2023-07-25T06:16:39.236Z,2.88
2023-07-25T06:21:41.066Z,2.60
2023-07-25T06:26:42.997Z,2.45
2023-07-25T06:31:44.714Z,2.40
2023-07-25T06:36:46.450Z,2.30
2023-07-25T06:41:48.106Z,2.90
2023-07-25T06:46:53.592Z,2.65
2023-07-25T06:51:57.118Z,3.15
2023-07-25T06:56:58.917Z,2.97
2023-07-25T07:02:00.778Z,2.38
2023-07-25T07:07:02.599Z,2.20
2023-07-25T07:12:04.793Z,2.70
2023-07-25T07:17:06.663Z,3.28
2023-07-25T07:22:10.070Z,3.00
2023-07-25T07:27:11.941Z,2.65
2023-07-25T07:32:14.189Z,3.03
2023-07-25T07:37:15.872Z,2.35
2023-07-25T07:42:17.704Z,2.90
2023-07-25T07:47:19.372Z,2.72
2023-07-25T07:52:32.846Z,2.78
2023-07-25T07:57:48.083Z,2.53
2023-07-25T08:02:51.466Z,2.13
2023-07-25T08:07:53.465Z,2.42
2023-07-25T08:12:55.223Z,2.38
2023-07-25T08:17:57.042Z,2.70
2023-07-25T08:22:59.073Z,3.13
2023-07-25T08:28:00.794Z,2.30
2023-07-25T08:33:02.588Z,2.38
2023-07-25T08:38:04.342Z,1.90
2023-07-25T08:43:12.483Z,1.90
2023-07-25T08:48:16.302Z,1.70
2023-07-25T08:53:18.557Z,1.83
2023-07-25T08:58:20.824Z,1.20
2023-07-25T09:03:22.753Z,1.73
2023-07-25T09:08:24.560Z,1.73
2023-07-25T09:13:26.510Z,2.10
2023-07-25T09:18:28.189Z,1.77
2023-07-25T09:23:30.192Z,1.50
2023-07-25T09:28:33.132Z,1.70
2023-07-25T09:33:34.849Z,1.40
2023-07-25T09:38:36.726Z,1.73
2023-07-25T09:43:39.938Z,1.60
2023-07-25T09:48:46.304Z,1.48
2023-07-25T09:53:53.527Z,1.60
2023-07-25T10:04:00.738Z,1.80
2023-07-25T10:09:03.017Z,1.73
2023-07-25T10:14:04.885Z,1.50
2023-07-25T10:19:07.264Z,1.88
2023-07-25T10:24:13.351Z,1.63
2023-07-25T10:29:44.192Z,1.88
2023-07-25T10:35:01.021Z,1.65
2023-07-25T10:40:18.218Z,2.22
2023-07-25T10:45:28.668Z,1.52
2023-07-25T10:50:55.278Z,1.90
2023-07-25T10:56:08.659Z,2.38
2023-07-25T11:01:39.631Z,2.03
2023-07-25T11:06:41.790Z,2.35
2023-07-25T11:11:47.576Z,2.17
2023-07-25T11:16:51.898Z,2.13
2023-07-25T11:21:54.007Z,2.00
2023-07-25T11:26:55.771Z,1.92
2023-07-25T11:31:57.481Z,1.90
2023-07-25T11:36:59.823Z,1.80
2023-07-25T11:42:01.493Z,1.75
2023-07-25T11:47:03.614Z,2.00
2023-07-25T11:52:06.095Z,1.80
2023-07-25T11:57:09.437Z,2.00
2023-07-25T12:02:14.203Z,1.70
2023-07-25T12:07:16.191Z,2.05
2023-07-25T12:12:18.427Z,1.92
2023-07-25T12:17:20.289Z,1.85
2023-07-25T12:22:22.064Z,1.70
2023-07-25T12:27:23.693Z,1.88
2023-07-25T12:32:25.423Z,1.73
2023-07-25T12:37:27.107Z,1.40
2023-07-25T12:42:28.751Z,1.27
2023-07-25T12:47:30.524Z,1.95
2023-07-25T12:52:32.447Z,1.20
2023-07-25T12:57:34.374Z,1.65
2023-07-25T13:02:36.254Z,1.63
2023-07-25T13:07:38.225Z,1.95
2023-07-25T13:12:40.649Z,1.27
2023-07-25T13:17:42.500Z,1.80
2023-07-25T13:22:44.261Z,2.00
2023-07-25T13:27:45.915Z,1.85
2023-07-25T13:32:47.661Z,2.22
2023-07-25T13:37:49.690Z,2.00
2023-07-25T13:42:51.594Z,2.40
2023-07-25T13:47:53.545Z,2.40
2023-07-25T13:52:55.358Z,1.88
2023-07-25T13:57:57.026Z,1.80
2023-07-25T14:02:58.776Z,2.15
2023-07-25T14:08:00.683Z,2.08
2023-07-25T14:13:02.426Z,2.20
2023-07-25T14:18:04.272Z,3.25
2023-07-25T14:23:06.217Z,2.40
2023-07-25T14:28:07.910Z,3.67
2023-07-25T14:33:09.980Z,3.67
2023-07-25T14:38:14.056Z,3.72
2023-07-25T14:43:16.173Z,4.60
2023-07-25T14:48:18.163Z,4.80
2023-07-25T14:53:20.658Z,4.03
2023-07-25T14:58:22.721Z,4.30
2023-07-25T15:03:24.516Z,4.53
2023-07-25T15:08:26.901Z,4.60
2023-07-25T15:13:28.589Z,4.30
2023-07-25T15:18:30.528Z,5.45
2023-07-25T15:23:32.229Z,4.93
2023-07-25T15:28:33.888Z,4.53
2023-07-25T15:33:35.642Z,5.13
2023-07-25T15:38:37.772Z,4.78
2023-07-25T15:43:39.567Z,4.95
2023-07-25T15:48:41.221Z,3.45
2023-07-25T15:53:42.874Z,2.80
2023-07-25T15:58:44.604Z,3.63
2023-07-25T16:03:47.315Z,3.63
2023-07-25T16:08:49.221Z,3.72
2023-07-25T16:13:50.910Z,3.25
2023-07-25T16:18:52.715Z,4.53
2023-07-25T16:23:54.376Z,4.30
2023-07-25T16:28:56.025Z,4.10
2023-07-25T16:33:57.709Z,4.47
2023-07-25T16:38:59.398Z,5.32
2023-07-25T16:44:01.010Z,5.68
2023-07-25T16:49:02.695Z,5.38
2023-07-25T16:54:04.696Z,4.97
2023-07-25T16:59:08.139Z,5.53
2023-07-25T17:04:09.939Z,5.25
2023-07-25T17:09:11.628Z,5.40
2023-07-25T17:14:13.316Z,4.60
2023-07-25T17:19:15.132Z,4.88
2023-07-25T17:24:16.962Z,4.05
2023-07-25T17:29:18.693Z,3.65
2023-07-25T17:34:21.011Z,3.88
2023-07-25T17:39:23.203Z,4.93
2023-07-25T17:44:24.909Z,4.45
2023-07-25T17:49:26.603Z,4.88
2023-07-25T17:54:28.483Z,3.83
2023-07-25T17:59:30.286Z,5.28
2023-07-25T18:04:31.962Z,5.40
2023-07-25T18:09:33.700Z,5.43
2023-07-25T18:14:35.544Z,4.38
2023-07-25T18:19:40.419Z,4.75
2023-07-25T18:24:42.242Z,3.80
2023-07-25T18:29:44.411Z,3.60
2023-07-25T18:34:46.280Z,3.22
2023-07-25T18:39:48.221Z,3.25
2023-07-25T18:44:50.112Z,3.65
2023-07-25T18:49:52.426Z,3.55
2023-07-25T18:54:54.401Z,5.20
2023-07-25T18:59:57.113Z,5.45
2023-07-25T19:04:58.954Z,5.28
2023-07-25T19:10:00.978Z,5.95
2023-07-25T19:15:03.178Z,5.20
2023-07-25T19:20:05.524Z,5.50
2023-07-25T19:25:07.502Z,4.90
2023-07-25T19:30:11.452Z,4.45
2023-07-25T19:35:13.323Z,3.63
2023-07-25T19:40:15.633Z,3.83
2023-07-25T19:45:17.411Z,4.43
2023-07-25T19:50:19.237Z,3.47
2023-07-25T19:55:23.281Z,3.20
2023-07-25T20:00:25.018Z,2.40
2023-07-25T20:05:27.020Z,2.90
2023-07-25T20:10:29.088Z,3.72
2023-07-25T20:15:31.130Z,3.90
2023-07-25T20:20:32.912Z,4.60
2023-07-25T20:25:34.677Z,4.32
2023-07-25T20:30:36.492Z,4.20
2023-07-25T20:35:39.297Z,4.45
2023-07-25T20:40:41.232Z,5.30
2023-07-25T20:45:43.150Z,6.13
2023-07-25T20:50:44.838Z,4.97
2023-07-25T20:55:46.680Z,4.70
2023-07-25T21:00:49.045Z,4.68
2023-07-25T21:05:50.962Z,5.25
2023-07-25T21:10:52.704Z,5.20
2023-07-25T21:15:54.425Z,3.90
2023-07-25T21:20:56.890Z,4.22
2023-07-25T21:25:58.653Z,4.45
2023-07-25T21:31:00.781Z,4.07
2023-07-25T21:36:15.074Z,4.95
2023-07-25T21:41:16.866Z,4.50
2023-07-25T21:46:18.617Z,4.50
2023-07-25T21:51:20.814Z,4.55
2023-07-25T21:56:22.584Z,3.97
2023-07-25T22:01:24.342Z,4.00
2023-07-25T22:06:26.106Z,3.78
2023-07-25T22:11:27.920Z,3.88
2023-07-25T22:16:29.823Z,4.43
2023-07-25T22:21:33.069Z,3.67
2023-07-25T22:26:34.994Z,4.63
2023-07-25T22:31:37.428Z,5.47
2023-07-25T22:36:39.186Z,4.38
2023-07-25T22:41:40.896Z,4.10
2023-07-25T22:46:43.915Z,5.25
2023-07-25T22:51:45.632Z,5.15
2023-07-25T22:56:47.350Z,4.70
2023-07-25T23:01:49.037Z,4.75
2023-07-25T23:06:50.731Z,4.63
2023-07-25T23:11:53.014Z,4.75
2023-07-25T23:16:54.752Z,5.10
2023-07-25T23:21:56.459Z,5.85
2023-07-25T23:26:58.151Z,5.80
2023-07-25T23:31:59.804Z,6.07
2023-07-25T23:37:01.457Z,5.47
2023-07-25T23:42:04.134Z,5.55
2023-07-25T23:47:06.021Z,5.40
2023-07-25T23:52:08.124Z,5.22
2023-07-25T23:57:09.834Z,7.53
